Time;durP1;ratioP1;P1;durP2;ratioP2;P2;SDS_P1;SDS_P2;PMS_P1;PMS_P2;Temp;Humidity;BMP_temperature;BMP_pressure;BME280_temperature;BME280_humidity;BME280_pressure;Samples;Min_cycle;Max_cycle;Signal;HPM_P1;HPM_P2
2024/01/19 00:01:15;;;;;;;340.17;119.40;;;;;8.50;95189.00;;;;5018758;28;20427;-65
2024/01/19 00:04:04;;;;;;;331.27;101.03;;;;;8.60;95192.00;;;;5017115;28;20439;-65
2024/01/19 00:06:53;;;;;;;342.10;109.30;;;;;8.80;95190.00;;;;5021308;28;20835;-65
2024/01/19 00:09:43;;;;;;;340.27;88.10;;;;;8.80;95198.00;;;;5021959;28;20432;-65
2024/01/19 00:12:35;;;;;;;347.30;111.40;;;;;8.60;95209.00;;;;5023408;28;20425;-65
2024/01/19 00:15:24;;;;;;;337.60;89.07;;;;;8.70;95219.00;;;;5017014;28;20818;-66
2024/01/19 00:18:14;;;;;;;333.57;83.70;;;;;8.60;95228.00;;;;5020350;28;20469;-65
2024/01/19 00:21:03;;;;;;;337.60;88.37;;;;;8.80;95241.00;;;;5019721;28;20210;-66
2024/01/19 00:23:52;;;;;;;345.80;99.80;;;;;8.80;95243.00;;;;5020202;28;20432;-67
2024/01/19 00:26:42;;;;;;;340.90;89.03;;;;;8.90;95256.00;;;;5019745;28;20478;-66
2024/01/19 00:29:33;;;;;;;330.83;84.67;;;;;8.80;95270.00;;;;5014945;28;20425;-66
2024/01/19 00:32:22;;;;;;;333.77;88.17;;;;;8.80;95276.00;;;;5024530;28;20428;-66
2024/01/19 00:35:11;;;;;;;334.77;87.73;;;;;8.90;95286.00;;;;5024623;28;20428;-66
2024/01/19 00:38:03;;;;;;;328.37;84.80;;;;;8.80;95300.00;;;;5030296;28;21028;-67
2024/01/19 00:40:52;;;;;;;331.53;95.77;;;;;8.80;95302.00;;;;5023102;28;20417;-65
2024/01/19 00:43:41;;;;;;;342.60;96.80;;;;;8.50;95303.00;;;;5028485;28;20436;-67
2024/01/19 00:46:32;;;;;;;336.10;90.57;;;;;8.80;95327.00;;;;5024443;28;20455;-66
2024/01/19 00:49:21;;;;;;;316.27;98.90;;;;;8.80;95338.00;;;;5024777;28;20428;-66
2024/01/19 00:52:10;;;;;;;324.90;85.27;;;;;8.20;95331.00;;;;5028492;28;20213;-66
2024/01/19 00:54:59;;;;;;;336.37;100.50;;;;;8.60;95347.00;;;;5028262;28;20213;-66
2024/01/19 00:57:48;;;;;;;190.43;86.50;;;;;8.40;95345.00;;;;5025364;28;20472;-66
2024/01/19 01:00:37;;;;;;;168.23;82.70;;;;;8.20;95359.00;;;;5025009;28;20206;-66
2024/01/19 01:03:30;;;;;;;163.67;79.03;;;;;8.20;95366.00;;;;5024758;28;20201;-66
2024/01/19 01:06:19;;;;;;;162.20;80.00;;;;;7.90;95355.00;;;;5023571;28;20244;-66
2024/01/19 01:09:08;;;;;;;165.00;77.87;;;;;8.10;95371.00;;;;5025774;28;20299;-67
2024/01/19 01:11:57;;;;;;;171.47;83.77;;;;;8.00;95366.00;;;;5028245;28;20212;-67
2024/01/19 01:14:47;;;;;;;166.57;82.23;;;;;7.70;95366.00;;;;5028742;28;20204;-67
2024/01/19 01:17:36;;;;;;;155.03;78.60;;;;;7.90;95374.00;;;;5029080;28;20300;-66
2024/01/19 01:20:27;;;;;;;148.57;78.07;;;;;7.90;95387.00;;;;5020058;28;20225;-66
2024/01/19 01:23:16;;;;;;;147.13;73.67;;;;;7.80;95382.00;;;;5023449;28;20287;-67
2024/01/19 01:26:05;;;;;;;141.43;71.30;;;;;7.80;95384.00;;;;5028638;28;20220;-65
2024/01/19 01:28:55;;;;;;;147.93;77.40;;;;;7.80;95378.00;;;;5026930;28;20209;-65
2024/01/19 01:31:44;;;;;;;137.50;75.73;;;;;7.70;95378.00;;;;5028324;28;20201;-66
2024/01/19 01:34:33;;;;;;;134.93;70.47;;;;;7.50;95371.00;;;;5025840;28;20209;-67
2024/01/19 01:37:23;;;;;;;134.57;74.17;;;;;7.50;95385.00;;;;5023301;28;20240;-66
2024/01/19 01:40:12;;;;;;;141.20;74.53;;;;;7.70;95382.00;;;;5022868;28;20608;-66
2024/01/19 01:43:03;;;;;;;153.63;76.83;;;;;7.70;95377.00;;;;5023637;28;20679;-66
2024/01/19 01:45:52;;;;;;;170.47;81.80;;;;;7.60;95375.00;;;;5021672;28;20225;-66
2024/01/19 01:48:41;;;;;;;221.63;86.67;;;;;7.80;95387.00;;;;5025005;28;20194;-66
2024/01/19 01:51:31;;;;;;;280.97;87.63;;;;;7.40;95390.00;;;;5029103;28;20217;-65
2024/01/19 01:54:22;;;;;;;306.70;85.67;;;;;7.70;95405.00;;;;5027121;28;20576;-66
2024/01/19 01:57:11;;;;;;;327.00;84.50;;;;;7.70;95410.00;;;;5025258;28;20255;-65
2024/01/19 02:00:01;;;;;;;319.23;97.33;;;;;7.60;95401.00;;;;5026545;28;20957;-66
2024/01/19 02:02:50;;;;;;;339.50;95.37;;;;;7.60;95406.00;;;;5028439;28;20440;-65
2024/01/19 02:05:39;;;;;;;303.40;97.10;;;;;7.50;95400.00;;;;5022135;28;20444;-66
2024/01/19 02:08:28;;;;;;;194.67;81.97;;;;;7.10;95405.00;;;;5024753;28;20201;-65
2024/01/19 02:11:19;;;;;;;259.90;91.43;;;;;7.50;95415.00;;;;5024439;28;20596;-65
2024/01/19 02:14:10;;;;;;;283.43;93.40;;;;;7.50;95415.00;;;;5023931;28;20702;-65
2024/01/19 02:16:59;;;;;;;309.73;83.13;;;;;7.50;95427.00;;;;5024800;28;20221;-66
2024/01/19 02:19:48;;;;;;;210.60;85.43;;;;;7.40;95433.00;;;;5024307;28;20471;-65
2024/01/19 02:22:38;;;;;;;273.37;88.40;;;;;7.30;95432.00;;;;5020850;28;20600;-65
2024/01/19 02:25:29;;;;;;;287.90;84.83;;;;;7.20;95436.00;;;;5025993;28;20233;-65
2024/01/19 02:28:18;;;;;;;321.07;82.30;;;;;7.30;95449.00;;;;5025262;28;20416;-65
2024/01/19 02:31:07;;;;;;;241.70;90.20;;;;;7.10;95446.00;;;;5027679;28;20432;-66
2024/01/19 02:33:57;;;;;;;213.73;84.40;;;;;7.30;95464.00;;;;5025361;28;20899;-66
2024/01/19 02:36:46;;;;;;;341.17;88.67;;;;;7.30;95471.00;;;;5020172;28;20890;-66
2024/01/19 02:39:35;;;;;;;100.30;63.40;;;;;7.10;95470.00;;;;5026984;28;20851;-65
2024/01/19 02:42:25;;;;;;;80.63;59.67;;;;;7.20;95485.00;;;;5024268;28;20206;-65
2024/01/19 02:45:14;;;;;;;68.47;55.07;;;;;7.10;95476.00;;;;5021323;28;20213;-66
2024/01/19 02:48:04;;;;;;;67.20;54.70;;;;;7.00;95495.00;;;;5024100;28;20594;-66
2024/01/19 02:50:53;;;;;;;66.27;53.90;;;;;7.00;95509.00;;;;5026733;28;20623;-66
2024/01/19 02:53:42;;;;;;;59.07;51.10;;;;;7.00;95511.00;;;;5018964;28;20213;-66
2024/01/19 02:56:32;;;;;;;47.17;42.37;;;;;7.00;95518.00;;;;5019989;28;20229;-66
2024/01/19 02:59:22;;;;;;;53.27;46.30;;;;;7.00;95523.00;;;;5021941;28;20625;-67
2024/01/19 03:02:12;;;;;;;42.53;38.80;;;;;7.00;95533.00;;;;5024129;28;20209;-66
2024/01/19 03:05:01;;;;;;;42.77;38.30;;;;;6.90;95535.00;;;;5023416;28;20251;-67
2024/01/19 03:07:50;;;;;;;50.03;44.23;;;;;6.70;95530.00;;;;5020421;28;20606;-66
2024/01/19 03:10:39;;;;;;;43.77;39.53;;;;;6.70;95528.00;;;;5026785;28;20201;-67
2024/01/19 03:13:29;;;;;;;38.03;34.53;;;;;6.70;95534.00;;;;5025069;28;20220;-65
2024/01/19 03:16:19;;;;;;;45.90;41.43;;;;;5.80;95536.00;;;;5023333;28;20225;-66
2024/01/19 03:19:08;;;;;;;49.67;44.47;;;;;6.60;95564.00;;;;5023606;28;20225;-66
2024/01/19 03:21:57;;;;;;;50.60;42.90;;;;;6.50;95555.00;;;;5020516;28;21366;-65
2024/01/19 03:24:46;;;;;;;45.27;38.93;;;;;6.50;95568.00;;;;5019850;28;20198;-65
2024/01/19 03:27:35;;;;;;;47.90;42.80;;;;;5.20;95558.00;;;;5019856;28;20680;-66
2024/01/19 03:30:25;;;;;;;52.97;47.20;;;;;5.80;95557.00;;;;5021383;28;20679;-65
2024/01/19 03:33:15;;;;;;;46.23;41.67;;;;;6.00;95562.00;;;;5021400;28;20216;-65
2024/01/19 03:36:04;;;;;;;44.13;39.67;;;;;5.60;95574.00;;;;5023555;28;20229;-66
2024/01/19 03:38:54;;;;;;;42.03;37.93;;;;;5.20;95554.00;;;;5024804;28;20221;-65
2024/01/19 03:41:43;;;;;;;37.07;33.73;;;;;5.50;95573.00;;;;5025609;28;20253;-66
2024/01/19 03:44:32;;;;;;;32.33;29.07;;;;;5.60;95576.00;;;;5020421;28;20701;-66
2024/01/19 03:47:21;;;;;;;37.37;33.73;;;;;5.50;95580.00;;;;5024404;28;20232;-66
2024/01/19 03:50:12;;;;;;;38.47;34.77;;;;;5.40;95593.00;;;;5022563;28;20686;-66
2024/01/19 03:53:01;;;;;;;35.53;32.27;;;;;5.50;95600.00;;;;5023139;28;20209;-66
2024/01/19 03:55:50;;;;;;;37.67;33.87;;;;;5.20;95598.00;;;;5022275;28;20233;-67
2024/01/19 03:58:39;;;;;;;38.47;34.80;;;;;5.40;95599.00;;;;5027044;28;20570;-66
2024/01/19 04:01:28;;;;;;;36.60;32.80;;;;;5.50;95619.00;;;;5025203;28;20209;-66
2024/01/19 04:04:17;;;;;;;38.53;34.67;;;;;5.50;95618.00;;;;5020781;28;20233;-66
2024/01/19 04:07:08;;;;;;;40.57;36.43;;;;;5.50;95624.00;;;;5022707;28;20304;-66
2024/01/19 04:09:57;;;;;;;41.57;37.10;;;;;5.20;95628.00;;;;5026240;28;20569;-66
2024/01/19 04:12:46;;;;;;;40.00;36.03;;;;;5.20;95628.00;;;;5026139;28;20209;-66
2024/01/19 04:15:35;;;;;;;40.53;36.67;;;;;5.10;95638.00;;;;5025241;28;20225;-66
2024/01/19 04:18:24;;;;;;;43.93;38.93;;;;;5.00;95643.00;;;;5027208;28;20205;-66
2024/01/19 04:21:13;;;;;;;39.23;35.23;;;;;4.80;95662.00;;;;5026536;28;20205;-67
2024/01/19 04:24:04;;;;;;;41.93;37.50;;;;;4.60;95659.00;;;;5023041;28;20225;-66
2024/01/19 04:26:54;;;;;;;52.67;42.70;;;;;4.90;95677.00;;;;5027144;28;20279;-66
2024/01/19 04:29:43;;;;;;;46.00;40.50;;;;;5.30;95684.00;;;;5027001;28;20479;-66
2024/01/19 04:32:32;;;;;;;45.73;40.37;;;;;5.30;95696.00;;;;5026906;28;20205;-66
2024/01/19 04:35:21;;;;;;;41.70;37.57;;;;;5.20;95691.00;;;;5023957;28;20275;-66
2024/01/19 04:38:10;;;;;;;38.87;35.00;;;;;5.20;95705.00;;;;5051222;23;20833;-83
2024/01/19 04:41:01;;;;;;;39.43;35.47;;;;;5.00;95702.00;;;;5048480;28;20228;-84
2024/01/19 04:43:50;;;;;;;49.37;42.17;;;;;5.10;95722.00;;;;5043678;28;20666;-83
2024/01/19 04:46:39;;;;;;;38.17;34.30;;;;;5.00;95729.00;;;;5046773;28;20442;-83
2024/01/19 04:49:29;;;;;;;39.33;35.37;;;;;4.90;95729.00;;;;5049871;28;20209;-84
2024/01/19 04:52:18;;;;;;;38.70;35.07;;;;;5.10;95743.00;;;;5051345;28;20231;-84
2024/01/19 04:55:08;;;;;;;40.37;36.33;;;;;4.90;95746.00;;;;5049700;28;20208;-84
2024/01/19 04:57:59;;;;;;;46.73;39.87;;;;;4.80;95745.00;;;;5048956;28;20209;-84
2024/01/19 05:00:48;;;;;;;43.03;38.30;;;;;4.80;95753.00;;;;5041950;28;20217;-84
2024/01/19 05:03:38;;;;;;;42.73;38.30;;;;;4.80;95761.00;;;;5041069;28;20213;-84
2024/01/19 05:06:27;;;;;;;43.83;39.23;;;;;4.40;95762.00;;;;5042579;28;20215;-83
2024/01/19 05:09:16;;;;;;;49.23;40.93;;;;;4.80;95761.00;;;;5042362;28;20208;-83
2024/01/19 05:12:06;;;;;;;60.33;47.20;;;;;4.90;95771.00;;;;5041267;28;20228;-83
2024/01/19 05:14:56;;;;;;;50.57;41.20;;;;;5.00;95780.00;;;;5045198;28;20813;-84
2024/01/19 05:17:45;;;;;;;57.83;44.17;;;;;4.30;95785.00;;;;5039524;28;20205;-83
2024/01/19 05:20:35;;;;;;;56.93;45.53;;;;;4.60;95779.00;;;;5044321;28;20505;-84
2024/01/19 05:23:24;;;;;;;49.40;42.80;;;;;5.00;95784.00;;;;5035092;28;20431;-84
2024/01/19 05:26:13;;;;;;;47.80;41.67;;;;;4.90;95797.00;;;;5040618;28;20434;-84
2024/01/19 05:29:02;;;;;;;49.50;42.50;;;;;4.60;95802.00;;;;5043247;28;20444;-84
2024/01/19 05:31:53;;;;;;;44.30;37.37;;;;;4.50;95805.00;;;;5044283;28;20444;-83
2024/01/19 05:34:44;;;;;;;34.83;30.43;;;;;4.80;95822.00;;;;5047105;28;20821;-83
2024/01/19 05:37:33;;;;;;;29.13;26.10;;;;;4.80;95841.00;;;;5045440;28;20439;-83
2024/01/19 05:40:22;;;;;;;44.67;33.87;;;;;4.90;95854.00;;;;5038764;28;20475;-83
2024/01/19 05:43:11;;;;;;;31.00;28.07;;;;;4.60;95854.00;;;;5038743;28;20850;-84
2024/01/19 05:46:01;;;;;;;34.17;30.67;;;;;4.60;95865.00;;;;5040290;28;20431;-83
2024/01/19 05:48:51;;;;;;;42.77;35.40;;;;;4.80;95874.00;;;;5041217;28;20201;-83
2024/01/19 05:51:40;;;;;;;37.67;34.03;;;;;4.90;95875.00;;;;5034414;28;20464;-83
2024/01/19 05:54:29;;;;;;;35.03;31.47;;;;;4.30;95879.00;;;;5037783;28;20431;-84
2024/01/19 05:57:18;;;;;;;38.60;33.37;;;;;4.60;95882.00;;;;5035047;28;20471;-83
2024/01/19 06:00:09;;;;;;;36.20;32.50;;;;;4.70;95900.00;;;;5036727;28;20235;-82
2024/01/19 06:02:58;;;;;;;36.70;31.30;;;;;4.70;95914.00;;;;5046685;28;20476;-82
2024/01/19 06:05:49;;;;;;;37.90;33.87;;;;;4.50;95920.00;;;;5041848;28;20534;-82
2024/01/19 06:08:38;;;;;;;38.23;33.57;;;;;4.60;95932.00;;;;5041771;28;20432;-82
2024/01/19 06:11:27;;;;;;;36.40;32.53;;;;;4.60;95935.00;;;;5038826;28;20463;-82
2024/01/19 06:14:17;;;;;;;39.53;35.33;;;;;4.60;95924.00;;;;5040828;28;20431;-82
2024/01/19 06:17:06;;;;;;;38.07;34.33;;;;;4.40;95932.00;;;;5042623;28;20789;-82
2024/01/19 06:19:55;;;;;;;40.10;36.00;;;;;4.70;95944.00;;;;5048737;28;20431;-82
2024/01/19 06:22:45;;;;;;;41.13;36.57;;;;;4.30;95933.00;;;;5047509;28;20451;-82
2024/01/19 06:25:35;;;;;;;44.60;39.13;;;;;4.30;95941.00;;;;5037314;28;20435;-82
2024/01/19 06:28:24;;;;;;;61.57;47.77;;;;;4.60;95936.00;;;;5033883;28;20432;-82
2024/01/19 06:31:13;;;;;;;56.33;43.07;;;;;4.60;95951.00;;;;5039127;28;20436;-82
2024/01/19 06:34:02;;;;;;;76.47;51.37;;;;;4.70;95960.00;;;;5036396;28;20440;-82
2024/01/19 06:36:51;;;;;;;194.67;81.27;;;;;4.70;95965.00;;;;5033947;28;20444;-82
2024/01/19 06:39:42;;;;;;;135.43;62.33;;;;;4.60;95963.00;;;;5035051;28;20968;-82
2024/01/19 06:42:31;;;;;;;125.57;62.07;;;;;4.70;95986.00;;;;5044139;28;20447;-82
2024/01/19 06:45:20;;;;;;;209.90;71.97;;;;;4.60;95994.00;;;;5049330;28;20858;-82
2024/01/19 06:48:09;;;;;;;234.90;77.57;;;;;4.50;95985.00;;;;5041448;28;20443;-82
2024/01/19 06:50:58;;;;;;;252.03;81.30;;;;;4.60;95989.00;;;;5040673;28;20451;-83
2024/01/19 06:53:48;;;;;;;272.70;79.77;;;;;4.50;95994.00;;;;5040267;28;20478;-82
2024/01/19 06:56:38;;;;;;;283.90;73.90;;;;;4.40;95991.00;;;;5043571;28;20477;-82
2024/01/19 06:59:28;;;;;;;296.07;75.93;;;;;4.60;95996.00;;;;5048024;28;20435;-82
2024/01/19 07:02:17;;;;;;;288.03;74.50;;;;;4.50;96009.00;;;;5046239;28;20475;-82
2024/01/19 07:05:07;;;;;;;292.33;72.80;;;;;4.20;96028.00;;;;5045027;28;20431;-82
2024/01/19 07:07:58;;;;;;;298.53;78.80;;;;;4.40;96047.00;;;;5046750;28;20794;-82
2024/01/19 07:10:48;;;;;;;299.47;79.80;;;;;4.50;96042.00;;;;5048449;28;20420;-82
2024/01/19 07:13:39;;;;;;;373.00;133.17;;;;;4.50;96025.00;;;;5030781;28;20436;-83
2024/01/19 07:16:28;;;;;;;301.40;75.77;;;;;4.50;96032.00;;;;5038108;28;20436;-82
2024/01/19 07:19:17;;;;;;;381.77;135.70;;;;;4.40;96040.00;;;;4999760;28;21300;-82
2024/01/19 07:22:06;;;;;;;330.23;86.87;;;;;4.40;96040.00;;;;5039600;28;20479;-82
2024/01/19 07:24:56;;;;;;;347.77;97.63;;;;;4.40;96046.00;;;;4995218;28;20435;-82
2024/01/19 07:27:45;;;;;;;381.47;129.70;;;;;4.40;96052.00;;;;5000203;28;20442;-82
2024/01/19 07:30:35;;;;;;;342.53;88.03;;;;;4.50;96050.00;;;;5002529;28;23057;-81
2024/01/19 07:33:25;;;;;;;304.47;87.07;;;;;4.50;96048.00;;;;5023380;28;20427;-82
2024/01/19 07:36:16;;;;;;;264.20;77.53;;;;;4.10;96054.00;;;;5039376;28;20527;-82
2024/01/19 07:39:05;;;;;;;253.90;74.00;;;;;4.40;96063.00;;;;5043226;28;20446;-82
2024/01/19 07:41:54;;;;;;;287.40;82.53;;;;;4.50;96070.00;;;;5046494;28;21000;-84
2024/01/19 07:44:43;;;;;;;327.03;78.87;;;;;4.40;96076.00;;;;5046879;28;20427;-81
2024/01/19 07:47:34;;;;;;;229.13;76.87;;;;;4.20;96077.00;;;;5037455;28;21010;-82
2024/01/19 07:50:23;;;;;;;254.27;83.57;;;;;4.60;96084.00;;;;5042056;28;20790;-82
2024/01/19 07:53:12;;;;;;;201.67;72.73;;;;;4.30;96094.00;;;;5032852;28;20460;-82
2024/01/19 07:56:01;;;;;;;255.10;109.37;;;;;4.20;96108.00;;;;5022833;28;21126;-82
2024/01/19 07:58:51;;;;;;;209.20;77.33;;;;;4.50;96128.00;;;;5035278;28;20441;-82
2024/01/19 08:01:40;;;;;;;208.73;74.43;;;;;4.60;96121.00;;;;5043158;28;20467;-82
2024/01/19 08:04:32;;;;;;;291.93;127.77;;;;;4.70;96126.00;;;;5016047;28;20798;-82
2024/01/19 08:07:21;;;;;;;293.13;130.33;;;;;4.60;96137.00;;;;4998825;28;20431;-82
2024/01/19 08:10:11;;;;;;;236.47;74.63;;;;;4.80;96144.00;;;;5008071;28;20434;-82
2024/01/19 08:13:00;;;;;;;344.60;141.60;;;;;4.30;96164.00;;;;4998732;28;20450;-82
2024/01/19 08:15:49;;;;;;;258.27;91.63;;;;;4.70;96180.00;;;;4992571;28;20781;-82
2024/01/19 08:18:38;;;;;;;322.50;137.90;;;;;4.80;96186.00;;;;4999681;28;20440;-82
2024/01/19 08:21:29;;;;;;;286.67;98.37;;;;;4.90;96188.00;;;;4999104;28;23138;-82
2024/01/19 08:24:18;;;;;;;343.20;136.47;;;;;4.90;96196.00;;;;5001225;28;20442;-82
2024/01/19 08:27:07;;;;;;;381.60;137.07;;;;;4.60;96201.00;;;;5000969;28;20979;-82
2024/01/19 08:29:56;;;;;;;339.53;138.27;;;;;4.70;96203.00;;;;4999320;28;20534;-82
2024/01/19 08:32:45;;;;;;;400.83;146.93;;;;;4.60;96222.00;;;;4999945;28;20477;-82
2024/01/19 08:35:35;;;;;;;394.47;144.07;;;;;4.70;96234.00;;;;4999334;28;21016;-82
2024/01/19 08:38:27;;;;;;;396.40;142.27;;;;;4.70;96243.00;;;;4999874;28;20454;-82
2024/01/19 08:41:16;;;;;;;386.67;135.70;;;;;4.70;96242.00;;;;4999335;28;20482;-82
2024/01/19 08:44:05;;;;;;;395.30;149.60;;;;;4.80;96253.00;;;;4997946;28;20458;-82
2024/01/19 08:46:55;;;;;;;401.63;149.17;;;;;4.70;96256.00;;;;5000231;28;20478;-82
2024/01/19 08:49:44;;;;;;;399.47;152.50;;;;;4.80;96272.00;;;;5003213;28;20739;-82
2024/01/19 08:52:33;;;;;;;393.50;148.67;;;;;5.00;96295.00;;;;5006052;28;20825;-82
2024/01/19 08:55:25;;;;;;;385.93;153.53;;;;;4.90;96283.00;;;;5005827;28;20854;-83
2024/01/19 08:58:14;;;;;;;247.17;126.00;;;;;4.80;96282.00;;;;5009231;28;20583;-82
2024/01/19 09:01:04;;;;;;;395.30;145.47;;;;;5.00;96293.00;;;;5007846;28;20458;-82
2024/01/19 09:03:53;;;;;;;396.83;138.60;;;;;5.00;96301.00;;;;5000644;28;20440;-82
2024/01/19 09:06:42;;;;;;;397.23;156.83;;;;;4.90;96313.00;;;;5006256;28;21038;-82
2024/01/19 09:09:33;;;;;;;275.40;128.90;;;;;5.10;96319.00;;;;4997246;28;20508;-83
2024/01/19 09:12:23;;;;;;;263.03;129.67;;;;;5.20;96324.00;;;;5000487;28;20466;-83
2024/01/19 09:15:16;;;;;;;397.53;139.93;;;;;5.10;96331.00;;;;5011313;28;20647;-84
2024/01/19 09:18:05;;;;;;;351.37;104.93;;;;;5.20;96338.00;;;;4993514;28;20436;-82
2024/01/19 09:20:54;;;;;;;342.50;102.07;;;;;5.10;96358.00;;;;5038291;28;20432;-82
2024/01/19 09:23:43;;;;;;;347.63;145.80;;;;;4.90;96359.00;;;;4996777;28;20825;-82
2024/01/19 09:26:33;;;;;;;252.17;130.53;;;;;4.90;96375.00;;;;5005778;28;20481;-82
2024/01/19 09:29:24;;;;;;;282.60;130.87;;;;;4.80;96381.00;;;;5007804;28;20446;-82
2024/01/19 09:32:16;;;;;;;328.63;139.70;;;;;4.50;96393.00;;;;5007035;28;20538;-82
2024/01/19 09:35:06;;;;;;;385.43;135.43;;;;;5.10;96399.00;;;;5007858;28;21858;-81
2024/01/19 09:37:56;;;;;;;358.70;150.13;;;;;5.20;96400.00;;;;5005711;28;20789;-82
2024/01/19 09:40:45;;;;;;;264.17;125.03;;;;;5.40;96422.00;;;;5008486;28;20435;-82
2024/01/19 09:43:35;;;;;;;372.60;141.83;;;;;5.20;96420.00;;;;5008286;28;20467;-82
2024/01/19 09:46:28;;;;;;;374.10;142.70;;;;;4.90;96427.00;;;;5004697;28;20447;-82
2024/01/19 09:49:24;;;;;;;334.97;94.00;;;;;4.50;96442.00;;;;5003508;28;20436;-82
2024/01/19 09:52:24;;;;;;;391.43;147.10;;;;;4.10;96435.00;;;;5004882;28;20547;-82
2024/01/19 09:55:14;;;;;;;397.97;163.73;;;;;4.80;96446.00;;;;5000893;28;20519;-82
2024/01/19 09:58:03;;;;;;;393.20;153.80;;;;;4.80;96447.00;;;;5000760;28;21548;-82
2024/01/19 10:00:52;;;;;;;395.53;146.80;;;;;4.90;96441.00;;;;5005729;28;20443;-82
2024/01/19 10:03:43;;;;;;;329.37;101.13;;;;;4.90;96443.00;;;;5035136;28;20493;-82
2024/01/19 10:06:33;;;;;;;333.37;107.37;;;;;5.00;96452.00;;;;5049513;28;20825;-82
2024/01/19 10:09:23;;;;;;;395.47;148.27;;;;;5.20;96469.00;;;;5002605;28;21028;-82
2024/01/19 10:12:14;;;;;;;331.70;95.80;;;;;5.10;96488.00;;;;5001338;28;20455;-82
2024/01/19 10:15:04;;;;;;;400.33;151.27;;;;;5.30;96506.00;;;;5005627;28;20440;-82
2024/01/19 10:17:54;;;;;;;351.60;116.00;;;;;5.20;96492.00;;;;5002271;28;20438;-81
2024/01/19 10:20:45;;;;;;;403.53;160.37;;;;;5.20;96489.00;;;;5007330;28;20496;-81
2024/01/19 10:23:34;;;;;;;345.27;104.43;;;;;5.40;96513.00;;;;5005564;28;20543;-80
2024/01/19 10:26:23;;;;;;;389.57;137.87;;;;;5.10;96508.00;;;;5002580;28;20439;-82
2024/01/19 10:29:13;;;;;;;342.53;93.27;;;;;4.50;96503.00;;;;5002552;28;21657;-83
2024/01/19 10:32:02;;;;;;;399.83;144.50;;;;;4.90;96512.00;;;;5005206;28;21420;-83
2024/01/19 10:35:05;;;;;;;404.93;152.17;;;;;5.20;96521.00;;;;5005068;28;20439;-82
2024/01/19 10:38:05;;;;;;;360.77;114.07;;;;;5.00;96516.00;;;;5006452;28;20493;-81
2024/01/19 10:40:57;;;;;;;340.27;87.00;;;;;5.20;96530.00;;;;5002450;28;20432;-81
2024/01/19 10:43:46;;;;;;;388.33;134.40;;;;;5.10;96526.00;;;;5002649;28;20476;-82
2024/01/19 10:46:35;;;;;;;352.13;110.20;;;;;4.70;96514.00;;;;5005614;28;20810;-83
2024/01/19 10:49:24;;;;;;;388.93;140.47;;;;;3.90;96523.00;;;;5008132;28;20436;-82
2024/01/19 10:52:14;;;;;;;330.80;84.07;;;;;4.70;96533.00;;;;5004151;28;20455;-82
2024/01/19 10:55:05;;;;;;;332.77;91.80;;;;;5.10;96538.00;;;;5008824;28;20486;-82
2024/01/19 10:57:57;;;;;;;331.63;84.23;;;;;5.40;96550.00;;;;5011555;28;21103;-82
2024/01/19 11:00:46;;;;;;;383.77;130.33;;;;;5.20;96551.00;;;;5010973;28;20458;-82
2024/01/19 11:03:35;;;;;;;321.50;75.27;;;;;5.20;96560.00;;;;5018035;28;20465;-82
2024/01/19 11:06:24;;;;;;;390.13;142.63;;;;;5.20;96561.00;;;;5020775;28;20472;-82
2024/01/19 11:09:13;;;;;;;348.30;93.47;;;;;5.30;96565.00;;;;5033371;28;20577;-82
2024/01/19 11:12:06;;;;;;;409.77;161.33;;;;;5.50;96568.00;;;;5000163;28;20479;-82
2024/01/19 11:14:56;;;;;;;346.57;96.67;;;;;5.50;96568.00;;;;5028777;28;20458;-82
2024/01/19 11:17:46;;;;;;;394.07;136.73;;;;;5.70;96579.00;;;;5026348;28;20456;-82
2024/01/19 11:20:35;;;;;;;325.97;80.07;;;;;5.30;96583.00;;;;5043128;28;20574;-82
2024/01/19 11:23:25;;;;;;;322.30;75.80;;;;;5.40;96585.00;;;;5034303;28;20866;-81
2024/01/19 11:26:19;;;;;;;330.37;80.50;;;;;5.50;96585.00;;;;5035973;28;20436;-82
2024/01/19 11:29:18;;;;;;;336.13;85.10;;;;;5.60;96583.00;;;;5017199;28;22397;-82
2024/01/19 11:32:09;;;;;;;331.80;80.70;;;;;5.30;96585.00;;;;5035862;28;20468;-82
2024/01/19 11:34:58;;;;;;;348.53;95.17;;;;;5.60;96590.00;;;;5037967;28;20427;-82
2024/01/19 11:37:48;;;;;;;325.07;77.17;;;;;5.10;96574.00;;;;5039076;28;20448;-81
2024/01/19 11:40:48;;;;;;;319.67;74.37;;;;;5.00;96584.00;;;;5031580;28;20432;-82
2024/01/19 11:43:38;;;;;;;324.13;75.87;;;;;4.00;96588.00;;;;5034024;28;20455;-82
2024/01/19 11:49:48;;;;;;;330.13;79.40;;;;;4.90;96587.00;;;;5131668;27;21133;-70
2024/01/19 11:52:55;;;;;;;331.63;81.00;;;;;5.10;96598.00;;;;5130310;27;20443;-70
2024/01/19 11:55:48;;;;;;;315.90;78.13;;;;;5.00;96592.00;;;;5130322;27;20432;-67
2024/01/19 11:58:39;;;;;;;231.53;72.07;;;;;4.80;96579.00;;;;5119390;28;20439;-70
2024/01/19 12:01:28;;;;;;;310.00;83.33;;;;;4.90;96587.00;;;;5119782;28;20445;-70
2024/01/19 12:04:18;;;;;;;143.83;66.90;;;;;5.10;96594.00;;;;5103871;28;20462;-71
2024/01/19 12:07:09;;;;;;;403.77;142.80;;;;;5.00;96595.00;;;;5116352;28;20458;-71
2024/01/19 12:10:07;;;;;;;188.90;78.00;;;;;4.90;96602.00;;;;5119452;28;20826;-70
2024/01/19 12:12:56;;;;;;;266.30;81.60;;;;;5.00;96582.00;;;;5123419;28;20420;-70
2024/01/19 12:15:45;;;;;;;273.73;80.47;;;;;5.10;96581.00;;;;5117578;28;20440;-70
2024/01/19 12:18:35;;;;;;;352.53;127.33;;;;;4.90;96592.00;;;;5117096;27;20432;-69
2024/01/19 12:21:25;;;;;;;323.47;89.07;;;;;4.40;96590.00;;;;5119212;28;20435;-70
2024/01/19 12:24:20;;;;;;;317.90;82.67;;;;;5.00;96610.00;;;;5121502;28;20424;-70
2024/01/19 12:27:09;;;;;;;276.77;82.93;;;;;5.00;96622.00;;;;5118888;28;20456;-70
2024/01/19 12:29:58;;;;;;;298.43;88.47;;;;;5.10;96634.00;;;;5123333;28;20765;-70
2024/01/19 12:32:48;;;;;;;320.50;82.80;;;;;5.10;96626.00;;;;5121814;28;20806;-69
2024/01/19 12:35:38;;;;;;;220.00;76.70;;;;;5.20;96634.00;;;;5095154;28;20451;-69
2024/01/19 12:38:27;;;;;;;205.20;77.17;;;;;5.20;96638.00;;;;5119908;28;20456;-69
2024/01/19 12:41:19;;;;;;;204.07;73.47;;;;;5.10;96652.00;;;;5117653;28;20940;-70
2024/01/19 12:44:08;;;;;;;318.73;133.73;;;;;5.10;96654.00;;;;5098189;28;20438;-70
2024/01/19 12:46:59;;;;;;;327.33;140.83;;;;;4.90;96642.00;;;;5101149;28;20471;-70
2024/01/19 12:49:50;;;;;;;333.70;140.90;;;;;5.20;96639.00;;;;5087611;28;20420;-68
2024/01/19 12:52:40;;;;;;;330.80;90.73;;;;;4.90;96642.00;;;;5105922;28;20831;-69
2024/01/19 12:55:30;;;;;;;303.90;82.53;;;;;5.10;96653.00;;;;5098169;28;20433;-70
2024/01/19 12:58:24;;;;;;;323.80;80.93;;;;;4.90;96656.00;;;;5105441;28;20988;-69
2024/01/19 13:01:14;;;;;;;285.97;81.77;;;;;5.10;96659.00;;;;5081264;28;20574;-70
2024/01/19 13:04:03;;;;;;;334.83;89.00;;;;;5.10;96668.00;;;;5098385;28;20433;-70
2024/01/19 13:06:52;;;;;;;330.43;90.10;;;;;4.90;96674.00;;;;5086265;28;20476;-69
2024/01/19 13:09:42;;;;;;;328.40;91.73;;;;;5.10;96689.00;;;;5099714;28;20464;-69
2024/01/19 13:12:31;;;;;;;324.13;91.87;;;;;5.20;96668.00;;;;5085413;28;20437;-69
2024/01/19 13:15:21;;;;;;;312.80;79.33;;;;;5.20;96677.00;;;;5093839;28;20421;-69
2024/01/19 13:18:11;;;;;;;314.13;94.03;;;;;4.80;96668.00;;;;5100264;28;20988;-69
2024/01/19 13:21:11;;;;;;;312.60;88.63;;;;;5.20;96696.00;;;;5093360;28;20413;-69
2024/01/19 13:24:01;;;;;;;336.83;94.47;;;;;5.10;96689.00;;;;5088953;28;20418;-70
2024/01/19 13:26:59;;;;;;;384.87;140.80;;;;;4.20;96689.00;;;;5079098;28;20857;-69
2024/01/19 13:29:48;;;;;;;293.33;81.10;;;;;4.60;96710.00;;;;5097217;28;20484;-69
2024/01/19 13:32:39;;;;;;;214.00;74.40;;;;;3.50;96720.00;;;;5094622;28;20815;-70
2024/01/19 13:35:29;;;;;;;189.27;71.40;;;;;3.30;96718.00;;;;5089424;28;20436;-70
2024/01/19 13:38:19;;;;;;;176.93;68.97;;;;;2.70;96715.00;;;;5102545;28;20490;-69
2024/01/19 13:41:11;;;;;;;196.83;71.37;;;;;4.00;96727.00;;;;5098202;28;20431;-69
2024/01/19 13:44:00;;;;;;;190.40;72.43;;;;;3.80;96726.00;;;;5076182;28;20505;-70
2024/01/19 13:46:50;;;;;;;193.17;75.20;;;;;2.20;96724.00;;;;5095653;28;20445;-68
2024/01/19 13:49:40;;;;;;;194.13;71.37;;;;;3.50;96739.00;;;;5062733;28;20469;-69
2024/01/19 13:52:29;;;;;;;182.63;72.67;;;;;2.70;96724.00;;;;5064738;28;20488;-69